sensor_id;sensor_type;location;lat;lon;timestamp;P1;durP1;ratioP1;P2;durP2;ratioP2
15398;SDS011;7797;51.428;6.756;2022-11-09T00:01:41;2.20;;;1.70;;
15398;SDS011;7797;51.428;6.756;2022-11-09T00:04:08;2.73;;;1.90;;
15398;SDS011;7797;51.428;6.756;2022-11-09T00:06:35;3.47;;;2.00;;
15398;SDS011;7797;51.428;6.756;2022-11-09T00:09:03;3.63;;;1.80;;
15398;SDS011;7797;51.428;6.756;2022-11-09T00:11:33;2.10;;;1.87;;
15398;SDS011;7797;51.428;6.756;2022-11-09T00:14:02;2.30;;;1.70;;
15398;SDS011;7797;51.428;6.756;2022-11-09T00:16:29;2.17;;;1.97;;
15398;SDS011;7797;51.428;6.756;2022-11-09T00:18:56;2.13;;;1.70;;
15398;SDS011;7797;51.428;6.756;2022-11-09T00:21:23;2.17;;;1.67;;
15398;SDS011;7797;51.428;6.756;2022-11-09T00:23:50;2.47;;;1.70;;
15398;SDS011;7797;51.428;6.756;2022-11-09T00:26:18;1.53;;;1.50;;
15398;SDS011;7797;51.428;6.756;2022-11-09T00:28:45;2.07;;;1.87;;
15398;SDS011;7797;51.428;6.756;2022-11-09T00:31:13;3.13;;;1.60;;
15398;SDS011;7797;51.428;6.756;2022-11-09T00:33:42;2.03;;;1.53;;
15398;SDS011;7797;51.428;6.756;2022-11-09T00:36:16;1.80;;;1.70;;
15398;SDS011;7797;51.428;6.756;2022-11-09T00:38:46;1.97;;;1.80;;
15398;SDS011;7797;51.428;6.756;2022-11-09T00:41:14;3.17;;;1.70;;
15398;SDS011;7797;51.428;6.756;2022-11-09T00:43:41;2.93;;;1.70;;
15398;SDS011;7797;51.428;6.756;2022-11-09T00:46:08;2.07;;;1.70;;
15398;SDS011;7797;51.428;6.756;2022-11-09T00:48:35;2.73;;;1.60;;
15398;SDS011;7797;51.428;6.756;2022-11-09T00:51:02;1.40;;;1.30;;
15398;SDS011;7797;51.428;6.756;2022-11-09T00:53:29;2.93;;;1.83;;
15398;SDS011;7797;51.428;6.756;2022-11-09T00:55:57;2.83;;;1.90;;
15398;SDS011;7797;51.428;6.756;2022-11-09T00:58:29;1.67;;;1.57;;
15398;SDS011;7797;51.428;6.756;2022-11-09T01:00:58;2.23;;;1.80;;
15398;SDS011;7797;51.428;6.756;2022-11-09T01:03:28;1.87;;;1.70;;
15398;SDS011;7797;51.428;6.756;2022-11-09T01:05:57;2.80;;;1.80;;
15398;SDS011;7797;51.428;6.756;2022-11-09T01:08:24;1.67;;;1.47;;
15398;SDS011;7797;51.428;6.756;2022-11-09T01:10:51;1.90;;;1.80;;
15398;SDS011;7797;51.428;6.756;2022-11-09T01:13:18;1.80;;;1.60;;
15398;SDS011;7797;51.428;6.756;2022-11-09T01:15:49;2.53;;;1.60;;
15398;SDS011;7797;51.428;6.756;2022-11-09T01:18:18;2.07;;;1.60;;
15398;SDS011;7797;51.428;6.756;2022-11-09T01:20:46;1.83;;;1.77;;
15398;SDS011;7797;51.428;6.756;2022-11-09T01:23:14;1.70;;;1.60;;
15398;SDS011;7797;51.428;6.756;2022-11-09T01:25:42;1.93;;;1.50;;
15398;SDS011;7797;51.428;6.756;2022-11-09T01:28:09;2.63;;;1.50;;
15398;SDS011;7797;51.428;6.756;2022-11-09T01:30:37;1.73;;;1.50;;
15398;SDS011;7797;51.428;6.756;2022-11-09T01:33:07;1.70;;;1.60;;
15398;SDS011;7797;51.428;6.756;2022-11-09T01:35:35;2.47;;;1.70;;
15398;SDS011;7797;51.428;6.756;2022-11-09T01:38:03;2.00;;;1.90;;
15398;SDS011;7797;51.428;6.756;2022-11-09T01:40:31;2.50;;;1.50;;
15398;SDS011;7797;51.428;6.756;2022-11-09T01:43:05;1.60;;;1.50;;
15398;SDS011;7797;51.428;6.756;2022-11-09T01:45:34;1.60;;;1.50;;
15398;SDS011;7797;51.428;6.756;2022-11-09T01:48:05;1.60;;;1.50;;
15398;SDS011;7797;51.428;6.756;2022-11-09T01:50:56;2.37;;;1.60;;
15398;SDS011;7797;51.428;6.756;2022-11-09T01:53:28;1.83;;;1.63;;
15398;SDS011;7797;51.428;6.756;2022-11-09T01:55:57;2.93;;;1.60;;
15398;SDS011;7797;51.428;6.756;2022-11-09T01:58:28;2.10;;;1.70;;
15398;SDS011;7797;51.428;6.756;2022-11-09T02:00:57;2.53;;;1.80;;
15398;SDS011;7797;51.428;6.756;2022-11-09T02:03:32;2.80;;;1.43;;
15398;SDS011;7797;51.428;6.756;2022-11-09T02:06:02;1.80;;;1.70;;
15398;SDS011;7797;51.428;6.756;2022-11-09T02:08:30;2.33;;;1.63;;
15398;SDS011;7797;51.428;6.756;2022-11-09T02:11:05;2.73;;;1.73;;
15398;SDS011;7797;51.428;6.756;2022-11-09T02:13:34;2.80;;;1.70;;
15398;SDS011;7797;51.428;6.756;2022-11-09T02:16:04;4.40;;;1.80;;
15398;SDS011;7797;51.428;6.756;2022-11-09T02:18:31;2.47;;;1.80;;
15398;SDS011;7797;51.428;6.756;2022-11-09T02:20:58;1.60;;;1.50;;
15398;SDS011;7797;51.428;6.756;2022-11-09T02:23:25;2.07;;;1.67;;
15398;SDS011;7797;51.428;6.756;2022-11-09T02:25:53;3.47;;;1.80;;
15398;SDS011;7797;51.428;6.756;2022-11-09T02:28:22;2.33;;;1.87;;
15398;SDS011;7797;51.428;6.756;2022-11-09T02:30:50;2.57;;;1.67;;
15398;SDS011;7797;51.428;6.756;2022-11-09T02:33:17;2.53;;;2.33;;
15398;SDS011;7797;51.428;6.756;2022-11-09T02:35:44;2.13;;;1.90;;
15398;SDS011;7797;51.428;6.756;2022-11-09T02:38:11;1.80;;;1.70;;
15398;SDS011;7797;51.428;6.756;2022-11-09T02:40:40;3.03;;;1.77;;
15398;SDS011;7797;51.428;6.756;2022-11-09T02:43:09;3.77;;;1.90;;
15398;SDS011;7797;51.428;6.756;2022-11-09T02:45:37;4.33;;;1.90;;
15398;SDS011;7797;51.428;6.756;2022-11-09T02:48:04;1.83;;;1.47;;
15398;SDS011;7797;51.428;6.756;2022-11-09T02:50:31;1.97;;;1.77;;
15398;SDS011;7797;51.428;6.756;2022-11-09T02:52:57;1.93;;;1.53;;
15398;SDS011;7797;51.428;6.756;2022-11-09T02:55:24;2.03;;;1.60;;
15398;SDS011;7797;51.428;6.756;2022-11-09T02:57:51;3.50;;;1.90;;
15398;SDS011;7797;51.428;6.756;2022-11-09T03:00:17;4.30;;;1.70;;
15398;SDS011;7797;51.428;6.756;2022-11-09T03:02:44;2.20;;;1.70;;
15398;SDS011;7797;51.428;6.756;2022-11-09T03:05:11;3.23;;;1.50;;
15398;SDS011;7797;51.428;6.756;2022-11-09T03:07:37;4.03;;;1.97;;
15398;SDS011;7797;51.428;6.756;2022-11-09T03:10:04;3.30;;;1.70;;
15398;SDS011;7797;51.428;6.756;2022-11-09T03:12:31;4.33;;;1.90;;
15398;SDS011;7797;51.428;6.756;2022-11-09T03:14:58;4.40;;;1.57;;
15398;SDS011;7797;51.428;6.756;2022-11-09T03:17:27;3.20;;;1.57;;
15398;SDS011;7797;51.428;6.756;2022-11-09T03:19:54;2.60;;;1.80;;
15398;SDS011;7797;51.428;6.756;2022-11-09T03:22:20;4.27;;;2.30;;
15398;SDS011;7797;51.428;6.756;2022-11-09T03:24:47;3.77;;;1.83;;
15398;SDS011;7797;51.428;6.756;2022-11-09T03:27:14;5.03;;;1.73;;
15398;SDS011;7797;51.428;6.756;2022-11-09T03:29:41;5.40;;;2.00;;
15398;SDS011;7797;51.428;6.756;2022-11-09T03:32:08;4.53;;;1.73;;
15398;SDS011;7797;51.428;6.756;2022-11-09T03:34:35;3.63;;;1.80;;
15398;SDS011;7797;51.428;6.756;2022-11-09T03:37:02;3.37;;;1.50;;
15398;SDS011;7797;51.428;6.756;2022-11-09T03:39:29;6.00;;;2.30;;
15398;SDS011;7797;51.428;6.756;2022-11-09T03:41:55;5.47;;;1.90;;
15398;SDS011;7797;51.428;6.756;2022-11-09T03:44:22;7.00;;;2.00;;
15398;SDS011;7797;51.428;6.756;2022-11-09T03:46:49;4.23;;;2.07;;
15398;SDS011;7797;51.428;6.756;2022-11-09T03:49:15;6.13;;;2.30;;
15398;SDS011;7797;51.428;6.756;2022-11-09T03:51:42;7.37;;;2.33;;
15398;SDS011;7797;51.428;6.756;2022-11-09T03:54:08;6.83;;;2.93;;
15398;SDS011;7797;51.428;6.756;2022-11-09T03:56:35;5.23;;;1.90;;
15398;SDS011;7797;51.428;6.756;2022-11-09T03:59:02;3.70;;;1.70;;
15398;SDS011;7797;51.428;6.756;2022-11-09T04:01:28;4.23;;;1.60;;
15398;SDS011;7797;51.428;6.756;2022-11-09T04:03:55;4.40;;;2.00;;
15398;SDS011;7797;51.428;6.756;2022-11-09T04:06:22;5.90;;;2.30;;
15398;SDS011;7797;51.428;6.756;2022-11-09T04:08:49;4.50;;;2.40;;
15398;SDS011;7797;51.428;6.756;2022-11-09T04:11:16;5.57;;;2.10;;
15398;SDS011;7797;51.428;6.756;2022-11-09T04:13:43;6.40;;;2.03;;
15398;SDS011;7797;51.428;6.756;2022-11-09T04:16:10;4.90;;;2.00;;
15398;SDS011;7797;51.428;6.756;2022-11-09T04:18:37;5.50;;;1.67;;
15398;SDS011;7797;51.428;6.756;2022-11-09T04:21:04;6.57;;;1.90;;
15398;SDS011;7797;51.428;6.756;2022-11-09T04:23:31;3.90;;;2.00;;
15398;SDS011;7797;51.428;6.756;2022-11-09T04:25:57;7.30;;;1.93;;
15398;SDS011;7797;51.428;6.756;2022-11-09T04:28:25;4.03;;;1.80;;
15398;SDS011;7797;51.428;6.756;2022-11-09T04:30:52;6.13;;;2.00;;
15398;SDS011;7797;51.428;6.756;2022-11-09T04:33:18;3.50;;;1.90;;
15398;SDS011;7797;51.428;6.756;2022-11-09T04:35:46;4.60;;;2.20;;
15398;SDS011;7797;51.428;6.756;2022-11-09T04:38:16;7.33;;;1.83;;
15398;SDS011;7797;51.428;6.756;2022-11-09T04:40:42;6.90;;;1.80;;
15398;SDS011;7797;51.428;6.756;2022-11-09T04:43:11;4.50;;;1.60;;
15398;SDS011;7797;51.428;6.756;2022-11-09T04:45:38;4.47;;;2.07;;
15398;SDS011;7797;51.428;6.756;2022-11-09T04:48:06;4.07;;;2.10;;
15398;SDS011;7797;51.428;6.756;2022-11-09T04:50:33;5.90;;;2.37;;
15398;SDS011;7797;51.428;6.756;2022-11-09T04:53:07;5.10;;;2.83;;
15398;SDS011;7797;51.428;6.756;2022-11-09T04:55:35;6.60;;;3.00;;
15398;SDS011;7797;51.428;6.756;2022-11-09T04:58:02;5.33;;;2.57;;
15398;SDS011;7797;51.428;6.756;2022-11-09T05:00:29;6.43;;;2.30;;
15398;SDS011;7797;51.428;6.756;2022-11-09T05:02:59;5.23;;;2.70;;
15398;SDS011;7797;51.428;6.756;2022-11-09T05:05:27;4.00;;;3.00;;
15398;SDS011;7797;51.428;6.756;2022-11-09T05:07:54;7.17;;;3.37;;
15398;SDS011;7797;51.428;6.756;2022-11-09T05:10:21;4.63;;;2.80;;
15398;SDS011;7797;51.428;6.756;2022-11-09T05:12:48;4.23;;;2.63;;
15398;SDS011;7797;51.428;6.756;2022-11-09T05:15:14;5.47;;;2.80;;
15398;SDS011;7797;51.428;6.756;2022-11-09T05:17:41;4.73;;;2.37;;
15398;SDS011;7797;51.428;6.756;2022-11-09T05:20:08;4.40;;;2.30;;
15398;SDS011;7797;51.428;6.756;2022-11-09T05:22:38;4.57;;;2.60;;
15398;SDS011;7797;51.428;6.756;2022-11-09T05:25:24;7.10;;;2.90;;
15398;SDS011;7797;51.428;6.756;2022-11-09T05:27:51;7.07;;;2.90;;
15398;SDS011;7797;51.428;6.756;2022-11-09T05:30:18;5.23;;;2.90;;
15398;SDS011;7797;51.428;6.756;2022-11-09T05:32:45;6.50;;;3.50;;
15398;SDS011;7797;51.428;6.756;2022-11-09T05:35:11;8.97;;;4.53;;
15398;SDS011;7797;51.428;6.756;2022-11-09T05:37:38;7.30;;;2.97;;
15398;SDS011;7797;51.428;6.756;2022-11-09T05:40:05;9.60;;;2.77;;
15398;SDS011;7797;51.428;6.756;2022-11-09T05:42:33;5.37;;;2.63;;
15398;SDS011;7797;51.428;6.756;2022-11-09T05:45:00;6.73;;;2.60;;
15398;SDS011;7797;51.428;6.756;2022-11-09T05:47:47;8.43;;;2.30;;
15398;SDS011;7797;51.428;6.756;2022-11-09T05:50:14;4.07;;;1.73;;
15398;SDS011;7797;51.428;6.756;2022-11-09T05:52:41;2.80;;;1.80;;
15398;SDS011;7797;51.428;6.756;2022-11-09T05:55:07;4.23;;;2.07;;
15398;SDS011;7797;51.428;6.756;2022-11-09T05:57:34;4.93;;;1.73;;
15398;SDS011;7797;51.428;6.756;2022-11-09T06:00:02;6.20;;;2.23;;
15398;SDS011;7797;51.428;6.756;2022-11-09T06:02:36;3.07;;;2.00;;
15398;SDS011;7797;51.428;6.756;2022-11-09T06:05:02;6.03;;;2.50;;
15398;SDS011;7797;51.428;6.756;2022-11-09T06:07:29;4.33;;;1.87;;
15398;SDS011;7797;51.428;6.756;2022-11-09T06:09:56;4.60;;;1.90;;
15398;SDS011;7797;51.428;6.756;2022-11-09T06:12:22;4.60;;;2.13;;
15398;SDS011;7797;51.428;6.756;2022-11-09T06:14:49;6.90;;;2.77;;
15398;SDS011;7797;51.428;6.756;2022-11-09T06:17:16;4.47;;;1.83;;
15398;SDS011;7797;51.428;6.756;2022-11-09T06:19:42;4.70;;;1.70;;
15398;SDS011;7797;51.428;6.756;2022-11-09T06:22:09;5.37;;;1.73;;
15398;SDS011;7797;51.428;6.756;2022-11-09T06:24:43;10.57;;;2.50;;
15398;SDS011;7797;51.428;6.756;2022-11-09T06:27:10;7.97;;;2.43;;
15398;SDS011;7797;51.428;6.756;2022-11-09T06:29:37;6.97;;;2.33;;
15398;SDS011;7797;51.428;6.756;2022-11-09T06:32:04;6.30;;;2.43;;
15398;SDS011;7797;51.428;6.756;2022-11-09T06:34:31;5.17;;;2.60;;
15398;SDS011;7797;51.428;6.756;2022-11-09T06:36:57;9.57;;;3.27;;
15398;SDS011;7797;51.428;6.756;2022-11-09T06:39:26;8.90;;;3.10;;
15398;SDS011;7797;51.428;6.756;2022-11-09T06:41:53;8.83;;;3.73;;
15398;SDS011;7797;51.428;6.756;2022-11-09T06:44:19;8.93;;;4.17;;
15398;SDS011;7797;51.428;6.756;2022-11-09T06:46:46;8.73;;;4.87;;
15398;SDS011;7797;51.428;6.756;2022-11-09T06:49:13;9.97;;;4.80;;
15398;SDS011;7797;51.428;6.756;2022-11-09T06:51:39;10.07;;;3.60;;
15398;SDS011;7797;51.428;6.756;2022-11-09T06:54:06;6.80;;;3.17;;
15398;SDS011;7797;51.428;6.756;2022-11-09T06:56:33;6.40;;;3.00;;
15398;SDS011;7797;51.428;6.756;2022-11-09T06:59:00;6.50;;;3.50;;
15398;SDS011;7797;51.428;6.756;2022-11-09T07:01:27;8.43;;;3.20;;
15398;SDS011;7797;51.428;6.756;2022-11-09T07:03:54;6.00;;;3.13;;
15398;SDS011;7797;51.428;6.756;2022-11-09T07:06:21;7.30;;;3.17;;
15398;SDS011;7797;51.428;6.756;2022-11-09T07:08:54;10.53;;;3.60;;
15398;SDS011;7797;51.428;6.756;2022-11-09T07:11:21;6.87;;;3.10;;
15398;SDS011;7797;51.428;6.756;2022-11-09T07:13:48;4.57;;;2.53;;
15398;SDS011;7797;51.428;6.756;2022-11-09T07:16:22;7.40;;;2.90;;
15398;SDS011;7797;51.428;6.756;2022-11-09T07:18:49;5.87;;;2.60;;
15398;SDS011;7797;51.428;6.756;2022-11-09T07:21:15;5.97;;;2.93;;
15398;SDS011;7797;51.428;6.756;2022-11-09T07:23:42;5.93;;;2.97;;
15398;SDS011;7797;51.428;6.756;2022-11-09T07:26:09;7.07;;;3.10;;
15398;SDS011;7797;51.428;6.756;2022-11-09T07:28:35;8.20;;;3.43;;
15398;SDS011;7797;51.428;6.756;2022-11-09T07:31:02;8.90;;;3.80;;
15398;SDS011;7797;51.428;6.756;2022-11-09T07:33:29;8.77;;;4.17;;
15398;SDS011;7797;51.428;6.756;2022-11-09T07:35:58;6.07;;;3.03;;
15398;SDS011;7797;51.428;6.756;2022-11-09T07:38:27;6.80;;;2.90;;
15398;SDS011;7797;51.428;6.756;2022-11-09T07:40:57;6.87;;;2.80;;
15398;SDS011;7797;51.428;6.756;2022-11-09T07:43:33;4.77;;;2.40;;
15398;SDS011;7797;51.428;6.756;2022-11-09T07:46:01;5.37;;;2.50;;
15398;SDS011;7797;51.428;6.756;2022-11-09T07:48:28;3.77;;;1.80;;
15398;SDS011;7797;51.428;6.756;2022-11-09T07:50:55;4.53;;;2.00;;
15398;SDS011;7797;51.428;6.756;2022-11-09T07:53:22;3.30;;;1.90;;
15398;SDS011;7797;51.428;6.756;2022-11-09T07:55:56;3.50;;;1.83;;
15398;SDS011;7797;51.428;6.756;2022-11-09T07:58:23;2.67;;;1.43;;
15398;SDS011;7797;51.428;6.756;2022-11-09T08:00:50;3.10;;;1.60;;
15398;SDS011;7797;51.428;6.756;2022-11-09T08:03:18;3.40;;;1.50;;
15398;SDS011;7797;51.428;6.756;2022-11-09T08:05:46;3.93;;;1.70;;
15398;SDS011;7797;51.428;6.756;2022-11-09T08:08:19;5.17;;;2.00;;
15398;SDS011;7797;51.428;6.756;2022-11-09T08:10:46;3.63;;;2.00;;
15398;SDS011;7797;51.428;6.756;2022-11-09T08:13:16;2.53;;;1.60;;
15398;SDS011;7797;51.428;6.756;2022-11-09T08:15:45;3.97;;;2.10;;
15398;SDS011;7797;51.428;6.756;2022-11-09T08:18:14;4.80;;;2.20;;
15398;SDS011;7797;51.428;6.756;2022-11-09T08:20:42;7.07;;;2.97;;
15398;SDS011;7797;51.428;6.756;2022-11-09T08:23:13;8.93;;;4.07;;
15398;SDS011;7797;51.428;6.756;2022-11-09T08:25:40;10.47;;;5.03;;
15398;SDS011;7797;51.428;6.756;2022-11-09T08:28:07;10.60;;;5.40;;
15398;SDS011;7797;51.428;6.756;2022-11-09T08:30:40;8.30;;;4.37;;
15398;SDS011;7797;51.428;6.756;2022-11-09T08:33:06;5.50;;;3.17;;
15398;SDS011;7797;51.428;6.756;2022-11-09T08:35:33;4.60;;;2.80;;
15398;SDS011;7797;51.428;6.756;2022-11-09T08:38:01;5.83;;;2.77;;
15398;SDS011;7797;51.428;6.756;2022-11-09T08:40:29;2.83;;;2.53;;
15398;SDS011;7797;51.428;6.756;2022-11-09T08:43:05;3.33;;;2.10;;
15398;SDS011;7797;51.428;6.756;2022-11-09T08:45:33;3.83;;;2.50;;
15398;SDS011;7797;51.428;6.756;2022-11-09T08:48:01;3.27;;;2.13;;
15398;SDS011;7797;51.428;6.756;2022-11-09T08:50:29;4.20;;;2.07;;
15398;SDS011;7797;51.428;6.756;2022-11-09T08:52:56;9.73;;;2.20;;
15398;SDS011;7797;51.428;6.756;2022-11-09T08:55:23;4.23;;;2.30;;
15398;SDS011;7797;51.428;6.756;2022-11-09T08:57:53;2.60;;;1.70;;
15398;SDS011;7797;51.428;6.756;2022-11-09T09:00:24;6.43;;;2.40;;
15398;SDS011;7797;51.428;6.756;2022-11-09T09:02:51;4.90;;;2.87;;
15398;SDS011;7797;51.428;6.756;2022-11-09T09:05:18;5.57;;;3.33;;
15398;SDS011;7797;51.428;6.756;2022-11-09T09:07:46;5.73;;;2.33;;
15398;SDS011;7797;51.428;6.756;2022-11-09T09:10:13;3.97;;;2.30;;
15398;SDS011;7797;51.428;6.756;2022-11-09T09:12:39;6.03;;;2.17;;
15398;SDS011;7797;51.428;6.756;2022-11-09T09:15:06;5.93;;;2.00;;
15398;SDS011;7797;51.428;6.756;2022-11-09T09:17:33;2.23;;;1.73;;
15398;SDS011;7797;51.428;6.756;2022-11-09T09:20:00;4.83;;;1.70;;
15398;SDS011;7797;51.428;6.756;2022-11-09T09:22:29;5.00;;;1.70;;
15398;SDS011;7797;51.428;6.756;2022-11-09T09:24:57;7.63;;;1.90;;
15398;SDS011;7797;51.428;6.756;2022-11-09T09:27:24;3.07;;;1.33;;
15398;SDS011;7797;51.428;6.756;2022-11-09T09:29:51;4.13;;;1.50;;
15398;SDS011;7797;51.428;6.756;2022-11-09T09:32:18;1.80;;;1.47;;
15398;SDS011;7797;51.428;6.756;2022-11-09T09:34:44;3.10;;;1.57;;
15398;SDS011;7797;51.428;6.756;2022-11-09T09:37:17;3.13;;;1.60;;
15398;SDS011;7797;51.428;6.756;2022-11-09T09:39:44;3.30;;;1.67;;
15398;SDS011;7797;51.428;6.756;2022-11-09T09:42:15;2.07;;;1.50;;
15398;SDS011;7797;51.428;6.756;2022-11-09T09:50:05;3.30;;;1.40;;
15398;SDS011;7797;51.428;6.756;2022-11-09T09:52:54;4.77;;;1.77;;
15398;SDS011;7797;51.428;6.756;2022-11-09T09:55:46;8.13;;;1.63;;
15398;SDS011;7797;51.428;6.756;2022-11-09T09:58:40;2.83;;;1.47;;
15398;SDS011;7797;51.428;6.756;2022-11-09T10:01:13;5.43;;;1.40;;
15398;SDS011;7797;51.428;6.756;2022-11-09T10:03:42;3.37;;;1.50;;
15398;SDS011;7797;51.428;6.756;2022-11-09T10:11:34;3.07;;;1.37;;
15398;SDS011;7797;51.428;6.756;2022-11-09T10:16:54;4.37;;;1.50;;
15398;SDS011;7797;51.428;6.756;2022-11-09T10:22:07;6.43;;;2.20;;
15398;SDS011;7797;51.428;6.756;2022-11-09T10:29:58;8.20;;;1.70;;
15398;SDS011;7797;51.428;6.756;2022-11-09T10:32:29;3.50;;;1.40;;
15398;SDS011;7797;51.428;6.756;2022-11-09T10:37:40;1.97;;;1.40;;
15398;SDS011;7797;51.428;6.756;2022-11-09T10:43:10;8.47;;;2.00;;
15398;SDS011;7797;51.428;6.756;2022-11-09T10:45:39;3.53;;;1.70;;
15398;SDS011;7797;51.428;6.756;2022-11-09T10:48:43;6.90;;;1.90;;
15398;SDS011;7797;51.428;6.756;2022-11-09T10:51:47;5.40;;;1.87;;
15398;SDS011;7797;51.428;6.756;2022-11-09T10:54:27;2.07;;;1.40;;
15398;SDS011;7797;51.428;6.756;2022-11-09T10:57:19;5.03;;;2.10;;
15398;SDS011;7797;51.428;6.756;2022-11-09T10:59:56;3.90;;;1.40;;
15398;SDS011;7797;51.428;6.756;2022-11-09T11:07:33;4.77;;;2.00;;
15398;SDS011;7797;51.428;6.756;2022-11-09T11:12:40;3.83;;;2.23;;
15398;SDS011;7797;51.428;6.756;2022-11-09T11:18:03;3.70;;;1.80;;
15398;SDS011;7797;51.428;6.756;2022-11-09T11:20:35;5.93;;;2.03;;
15398;SDS011;7797;51.428;6.756;2022-11-09T11:31:10;6.17;;;2.40;;
15398;SDS011;7797;51.428;6.756;2022-11-09T11:33:40;4.13;;;1.97;;
15398;SDS011;7797;51.428;6.756;2022-11-09T11:39:00;4.67;;;1.47;;
15398;SDS011;7797;51.428;6.756;2022-11-09T11:56:00;6.00;;;1.37;;
15398;SDS011;7797;51.428;6.756;2022-11-09T12:04:24;6.73;;;1.87;;
15398;SDS011;7797;51.428;6.756;2022-11-09T12:09:44;4.33;;;1.67;;
15398;SDS011;7797;51.428;6.756;2022-11-09T12:16:04;5.07;;;1.37;;
15398;SDS011;7797;51.428;6.756;2022-11-09T12:22:02;6.03;;;1.97;;
15398;SDS011;7797;51.428;6.756;2022-11-09T12:27:29;6.80;;;1.70;;
15398;SDS011;7797;51.428;6.756;2022-11-09T12:30:13;4.13;;;1.60;;
15398;SDS011;7797;51.428;6.756;2022-11-09T12:33:00;3.23;;;1.47;;
15398;SDS011;7797;51.428;6.756;2022-11-09T12:38:31;4.60;;;1.60;;
15398;SDS011;7797;51.428;6.756;2022-11-09T12:41:36;6.67;;;1.77;;
15398;SDS011;7797;51.428;6.756;2022-11-09T12:44:01;9.63;;;1.73;;
15398;SDS011;7797;51.428;6.756;2022-11-09T12:46:32;4.87;;;1.60;;
15398;SDS011;7797;51.428;6.756;2022-11-09T12:49:08;5.13;;;1.80;;
15398;SDS011;7797;51.428;6.756;2022-11-09T12:51:47;4.20;;;1.40;;
15398;SDS011;7797;51.428;6.756;2022-11-09T12:54:14;5.13;;;1.80;;
15398;SDS011;7797;51.428;6.756;2022-11-09T12:56:44;3.70;;;1.50;;
15398;SDS011;7797;51.428;6.756;2022-11-09T13:02:02;5.73;;;2.07;;
15398;SDS011;7797;51.428;6.756;2022-11-09T13:04:30;3.83;;;1.60;;
15398;SDS011;7797;51.428;6.756;2022-11-09T13:09:34;5.50;;;1.37;;
15398;SDS011;7797;51.428;6.756;2022-11-09T13:12:17;2.77;;;1.40;;
15398;SDS011;7797;51.428;6.756;2022-11-09T13:14:44;4.40;;;1.50;;
15398;SDS011;7797;51.428;6.756;2022-11-09T13:19:54;5.40;;;1.87;;
15398;SDS011;7797;51.428;6.756;2022-11-09T13:24:57;3.57;;;1.63;;
15398;SDS011;7797;51.428;6.756;2022-11-09T13:30:41;9.63;;;1.80;;
15398;SDS011;7797;51.428;6.756;2022-11-09T13:40:46;5.00;;;1.77;;
15398;SDS011;7797;51.428;6.756;2022-11-09T13:43:14;5.17;;;1.83;;
15398;SDS011;7797;51.428;6.756;2022-11-09T13:48:43;4.63;;;1.50;;
15398;SDS011;7797;51.428;6.756;2022-11-09T13:54:04;3.10;;;1.30;;
15398;SDS011;7797;51.428;6.756;2022-11-09T13:56:51;3.70;;;1.60;;
15398;SDS011;7797;51.428;6.756;2022-11-09T13:59:28;7.40;;;1.80;;
15398;SDS011;7797;51.428;6.756;2022-11-09T14:01:58;5.87;;;1.67;;
15398;SDS011;7797;51.428;6.756;2022-11-09T14:07:03;4.13;;;1.87;;
15398;SDS011;7797;51.428;6.756;2022-11-09T14:12:36;3.43;;;1.53;;
15398;SDS011;7797;51.428;6.756;2022-11-09T14:23:17;4.90;;;1.60;;
15398;SDS011;7797;51.428;6.756;2022-11-09T14:25:45;8.47;;;1.70;;
15398;SDS011;7797;51.428;6.756;2022-11-09T14:28:21;3.83;;;1.40;;
15398;SDS011;7797;51.428;6.756;2022-11-09T14:30:48;4.77;;;1.50;;
15398;SDS011;7797;51.428;6.756;2022-11-09T14:33:23;3.50;;;1.57;;
15398;SDS011;7797;51.428;6.756;2022-11-09T14:35:55;7.13;;;1.83;;
15398;SDS011;7797;51.428;6.756;2022-11-09T14:38:27;4.20;;;1.67;;
15398;SDS011;7797;51.428;6.756;2022-11-09T14:40:55;3.23;;;1.40;;
15398;SDS011;7797;51.428;6.756;2022-11-09T14:46:06;5.67;;;1.83;;
15398;SDS011;7797;51.428;6.756;2022-11-09T14:48:48;3.87;;;1.80;;
15398;SDS011;7797;51.428;6.756;2022-11-09T14:51:18;3.00;;;1.40;;
15398;SDS011;7797;51.428;6.756;2022-11-09T14:53:48;2.97;;;1.80;;
15398;SDS011;7797;51.428;6.756;2022-11-09T14:56:17;4.87;;;1.80;;
15398;SDS011;7797;51.428;6.756;2022-11-09T14:58:45;7.23;;;2.10;;
15398;SDS011;7797;51.428;6.756;2022-11-09T15:06:49;4.37;;;1.90;;
15398;SDS011;7797;51.428;6.756;2022-11-09T15:09:19;3.50;;;1.67;;
15398;SDS011;7797;51.428;6.756;2022-11-09T15:11:47;3.13;;;1.50;;
15398;SDS011;7797;51.428;6.756;2022-11-09T15:16:48;4.03;;;1.90;;
15398;SDS011;7797;51.428;6.756;2022-11-09T15:19:28;4.10;;;1.60;;
15398;SDS011;7797;51.428;6.756;2022-11-09T15:21:57;2.23;;;1.40;;
15398;SDS011;7797;51.428;6.756;2022-11-09T15:24:25;3.33;;;1.50;;
15398;SDS011;7797;51.428;6.756;2022-11-09T15:26:53;3.73;;;1.33;;
15398;SDS011;7797;51.428;6.756;2022-11-09T15:29:26;4.03;;;1.27;;
15398;SDS011;7797;51.428;6.756;2022-11-09T15:31:57;4.30;;;1.80;;
15398;SDS011;7797;51.428;6.756;2022-11-09T15:34:37;2.23;;;1.57;;
15398;SDS011;7797;51.428;6.756;2022-11-09T15:39:56;2.80;;;1.57;;
15398;SDS011;7797;51.428;6.756;2022-11-09T15:42:24;5.30;;;1.30;;
15398;SDS011;7797;51.428;6.756;2022-11-09T15:44:56;2.27;;;1.37;;
15398;SDS011;7797;51.428;6.756;2022-11-09T15:47:30;4.63;;;1.03;;
15398;SDS011;7797;51.428;6.756;2022-11-09T15:49:59;2.13;;;1.27;;
15398;SDS011;7797;51.428;6.756;2022-11-09T15:52:29;2.87;;;1.40;;
15398;SDS011;7797;51.428;6.756;2022-11-09T15:54:56;4.50;;;1.37;;
15398;SDS011;7797;51.428;6.756;2022-11-09T15:57:23;2.33;;;1.27;;
15398;SDS011;7797;51.428;6.756;2022-11-09T15:59:49;3.23;;;1.40;;
15398;SDS011;7797;51.428;6.756;2022-11-09T16:02:23;3.57;;;1.43;;
15398;SDS011;7797;51.428;6.756;2022-11-09T16:04:56;3.93;;;1.60;;
15398;SDS011;7797;51.428;6.756;2022-11-09T16:07:22;2.67;;;1.47;;
15398;SDS011;7797;51.428;6.756;2022-11-09T16:09:49;1.17;;;1.10;;
15398;SDS011;7797;51.428;6.756;2022-11-09T16:12:16;2.33;;;1.40;;
15398;SDS011;7797;51.428;6.756;2022-11-09T16:14:49;5.60;;;1.50;;
15398;SDS011;7797;51.428;6.756;2022-11-09T16:17:15;2.03;;;1.40;;
15398;SDS011;7797;51.428;6.756;2022-11-09T16:19:42;3.13;;;1.67;;
15398;SDS011;7797;51.428;6.756;2022-11-09T16:22:11;2.73;;;1.73;;
15398;SDS011;7797;51.428;6.756;2022-11-09T16:24:38;3.77;;;1.37;;
15398;SDS011;7797;51.428;6.756;2022-11-09T16:27:06;3.43;;;1.80;;
15398;SDS011;7797;51.428;6.756;2022-11-09T16:29:47;4.57;;;2.20;;
15398;SDS011;7797;51.428;6.756;2022-11-09T16:32:14;6.27;;;2.20;;
15398;SDS011;7797;51.428;6.756;2022-11-09T16:34:43;6.10;;;1.80;;
15398;SDS011;7797;51.428;6.756;2022-11-09T16:37:31;4.70;;;2.10;;
15398;SDS011;7797;51.428;6.756;2022-11-09T16:40:05;6.57;;;2.00;;
15398;SDS011;7797;51.428;6.756;2022-11-09T16:42:34;8.27;;;1.90;;
15398;SDS011;7797;51.428;6.756;2022-11-09T16:45:08;7.83;;;1.90;;
15398;SDS011;7797;51.428;6.756;2022-11-09T16:47:39;5.40;;;2.10;;
15398;SDS011;7797;51.428;6.756;2022-11-09T16:50:08;4.97;;;2.10;;
15398;SDS011;7797;51.428;6.756;2022-11-09T16:52:35;2.87;;;1.70;;
15398;SDS011;7797;51.428;6.756;2022-11-09T16:55:02;4.57;;;1.93;;
15398;SDS011;7797;51.428;6.756;2022-11-09T16:57:29;5.80;;;2.17;;
15398;SDS011;7797;51.428;6.756;2022-11-09T16:59:55;6.37;;;2.00;;
15398;SDS011;7797;51.428;6.756;2022-11-09T17:02:23;4.97;;;2.07;;
15398;SDS011;7797;51.428;6.756;2022-11-09T17:04:51;6.03;;;2.40;;
15398;SDS011;7797;51.428;6.756;2022-11-09T17:07:18;6.50;;;2.30;;
15398;SDS011;7797;51.428;6.756;2022-11-09T17:09:45;4.17;;;1.80;;
15398;SDS011;7797;51.428;6.756;2022-11-09T17:12:12;6.30;;;2.23;;
15398;SDS011;7797;51.428;6.756;2022-11-09T17:14:45;5.57;;;2.20;;
15398;SDS011;7797;51.428;6.756;2022-11-09T17:17:12;5.27;;;1.93;;
15398;SDS011;7797;51.428;6.756;2022-11-09T17:19:46;5.17;;;2.07;;
15398;SDS011;7797;51.428;6.756;2022-11-09T17:22:13;5.03;;;2.20;;
15398;SDS011;7797;51.428;6.756;2022-11-09T17:24:40;10.90;;;2.30;;
15398;SDS011;7797;51.428;6.756;2022-11-09T17:27:07;5.50;;;2.43;;
15398;SDS011;7797;51.428;6.756;2022-11-09T17:29:35;5.87;;;2.43;;
15398;SDS011;7797;51.428;6.756;2022-11-09T17:32:08;6.20;;;2.43;;
15398;SDS011;7797;51.428;6.756;2022-11-09T17:34:41;6.70;;;2.53;;